sensor_id;sensor_type;location;lat;lon;timestamp;P1;durP1;ratioP1;P2;durP2;ratioP2
16304;SDS011;8261;47.678;-122.174;2022-10-29T00:00:27;4.97;;;2.13;;
16304;SDS011;8261;47.678;-122.174;2022-10-29T00:02:58;3.73;;;2.10;;
16304;SDS011;8261;47.678;-122.174;2022-10-29T00:05:29;3.00;;;2.53;;
16304;SDS011;8261;47.678;-122.174;2022-10-29T00:08:02;3.27;;;2.30;;
16304;SDS011;8261;47.678;-122.174;2022-10-29T00:10:34;3.70;;;2.53;;
16304;SDS011;8261;47.678;-122.174;2022-10-29T00:13:05;3.60;;;2.37;;
16304;SDS011;8261;47.678;-122.174;2022-10-29T00:15:39;5.07;;;2.57;;
16304;SDS011;8261;47.678;-122.174;2022-10-29T00:18:10;3.40;;;2.67;;
16304;SDS011;8261;47.678;-122.174;2022-10-29T00:20:41;4.17;;;2.40;;
16304;SDS011;8261;47.678;-122.174;2022-10-29T00:23:17;2.63;;;2.43;;
16304;SDS011;8261;47.678;-122.174;2022-10-29T00:25:47;3.03;;;2.50;;
16304;SDS011;8261;47.678;-122.174;2022-10-29T00:28:19;3.10;;;2.63;;
16304;SDS011;8261;47.678;-122.174;2022-10-29T00:30:51;5.60;;;2.80;;
16304;SDS011;8261;47.678;-122.174;2022-10-29T00:33:23;2.90;;;2.50;;
16304;SDS011;8261;47.678;-122.174;2022-10-29T00:35:54;3.47;;;2.80;;
16304;SDS011;8261;47.678;-122.174;2022-10-29T00:38:30;3.40;;;2.57;;
16304;SDS011;8261;47.678;-122.174;2022-10-29T00:41:03;6.77;;;2.93;;
16304;SDS011;8261;47.678;-122.174;2022-10-29T00:43:36;3.57;;;2.67;;
16304;SDS011;8261;47.678;-122.174;2022-10-29T00:46:14;7.00;;;2.67;;
16304;SDS011;8261;47.678;-122.174;2022-10-29T00:48:56;3.03;;;2.57;;
16304;SDS011;8261;47.678;-122.174;2022-10-29T00:51:28;2.90;;;2.50;;
16304;SDS011;8261;47.678;-122.174;2022-10-29T00:54:06;4.77;;;3.00;;
16304;SDS011;8261;47.678;-122.174;2022-10-29T00:56:44;4.50;;;2.80;;
16304;SDS011;8261;47.678;-122.174;2022-10-29T00:59:20;4.23;;;2.97;;
16304;SDS011;8261;47.678;-122.174;2022-10-29T01:01:51;5.33;;;3.47;;
16304;SDS011;8261;47.678;-122.174;2022-10-29T01:04:22;3.47;;;3.17;;
16304;SDS011;8261;47.678;-122.174;2022-10-29T01:06:54;3.53;;;2.90;;
16304;SDS011;8261;47.678;-122.174;2022-10-29T01:09:28;4.20;;;3.40;;
16304;SDS011;8261;47.678;-122.174;2022-10-29T01:12:04;5.70;;;3.00;;
16304;SDS011;8261;47.678;-122.174;2022-10-29T01:14:49;5.83;;;3.43;;
16304;SDS011;8261;47.678;-122.174;2022-10-29T01:17:31;4.07;;;3.30;;
16304;SDS011;8261;47.678;-122.174;2022-10-29T01:20:15;5.73;;;2.47;;
16304;SDS011;8261;47.678;-122.174;2022-10-29T01:23:10;3.80;;;3.10;;
16304;SDS011;8261;47.678;-122.174;2022-10-29T01:26:13;4.80;;;4.30;;
16304;SDS011;8261;47.678;-122.174;2022-10-29T01:29:04;6.03;;;3.93;;
16304;SDS011;8261;47.678;-122.174;2022-10-29T01:31:50;4.90;;;3.87;;
16304;SDS011;8261;47.678;-122.174;2022-10-29T01:34:24;6.53;;;3.47;;
16304;SDS011;8261;47.678;-122.174;2022-10-29T01:37:02;4.20;;;2.43;;
16304;SDS011;8261;47.678;-122.174;2022-10-29T01:39:42;5.80;;;3.10;;
16304;SDS011;8261;47.678;-122.174;2022-10-29T01:42:22;4.30;;;3.40;;
16304;SDS011;8261;47.678;-122.174;2022-10-29T01:44:59;2.80;;;2.43;;
16304;SDS011;8261;47.678;-122.174;2022-10-29T01:47:44;5.97;;;3.10;;
16304;SDS011;8261;47.678;-122.174;2022-10-29T01:50:20;4.47;;;3.80;;
16304;SDS011;8261;47.678;-122.174;2022-10-29T01:52:54;6.70;;;4.90;;
16304;SDS011;8261;47.678;-122.174;2022-10-29T01:55:27;6.20;;;5.60;;
16304;SDS011;8261;47.678;-122.174;2022-10-29T01:58:02;10.47;;;6.07;;
16304;SDS011;8261;47.678;-122.174;2022-10-29T02:00:34;7.97;;;5.83;;
16304;SDS011;8261;47.678;-122.174;2022-10-29T02:03:17;7.80;;;5.53;;
16304;SDS011;8261;47.678;-122.174;2022-10-29T02:05:59;5.93;;;5.03;;
16304;SDS011;8261;47.678;-122.174;2022-10-29T02:08:40;5.60;;;4.37;;
16304;SDS011;8261;47.678;-122.174;2022-10-29T02:11:21;6.97;;;4.60;;
16304;SDS011;8261;47.678;-122.174;2022-10-29T02:13:57;5.43;;;4.70;;
16304;SDS011;8261;47.678;-122.174;2022-10-29T02:16:32;5.10;;;4.47;;
16304;SDS011;8261;47.678;-122.174;2022-10-29T02:19:05;6.37;;;4.67;;
16304;SDS011;8261;47.678;-122.174;2022-10-29T02:21:35;5.37;;;4.47;;
16304;SDS011;8261;47.678;-122.174;2022-10-29T02:24:07;7.30;;;5.23;;
16304;SDS011;8261;47.678;-122.174;2022-10-29T02:26:39;6.27;;;4.50;;
16304;SDS011;8261;47.678;-122.174;2022-10-29T02:29:10;8.30;;;6.10;;
16304;SDS011;8261;47.678;-122.174;2022-10-29T02:31:41;11.40;;;7.90;;
16304;SDS011;8261;47.678;-122.174;2022-10-29T02:34:14;8.33;;;7.57;;
16304;SDS011;8261;47.678;-122.174;2022-10-29T02:36:45;8.73;;;6.70;;
16304;SDS011;8261;47.678;-122.174;2022-10-29T02:39:16;8.40;;;6.87;;
16304;SDS011;8261;47.678;-122.174;2022-10-29T02:41:48;7.73;;;6.10;;
16304;SDS011;8261;47.678;-122.174;2022-10-29T02:44:19;6.87;;;4.83;;
16304;SDS011;8261;47.678;-122.174;2022-10-29T02:46:50;4.77;;;4.27;;
16304;SDS011;8261;47.678;-122.174;2022-10-29T02:49:23;5.60;;;4.73;;
16304;SDS011;8261;47.678;-122.174;2022-10-29T02:51:54;5.53;;;4.27;;
16304;SDS011;8261;47.678;-122.174;2022-10-29T02:54:25;5.33;;;3.67;;
16304;SDS011;8261;47.678;-122.174;2022-10-29T02:56:57;5.20;;;4.70;;
16304;SDS011;8261;47.678;-122.174;2022-10-29T02:59:28;7.80;;;5.77;;
16304;SDS011;8261;47.678;-122.174;2022-10-29T03:01:59;5.10;;;4.47;;
16304;SDS011;8261;47.678;-122.174;2022-10-29T03:04:32;5.20;;;4.20;;
16304;SDS011;8261;47.678;-122.174;2022-10-29T03:07:05;4.77;;;3.40;;
16304;SDS011;8261;47.678;-122.174;2022-10-29T03:09:36;4.63;;;3.47;;
16304;SDS011;8261;47.678;-122.174;2022-10-29T03:12:07;4.67;;;3.90;;
16304;SDS011;8261;47.678;-122.174;2022-10-29T03:14:38;6.90;;;3.37;;
16304;SDS011;8261;47.678;-122.174;2022-10-29T03:17:09;6.67;;;4.53;;
16304;SDS011;8261;47.678;-122.174;2022-10-29T03:19:42;7.13;;;6.43;;
16304;SDS011;8261;47.678;-122.174;2022-10-29T03:22:14;6.37;;;5.77;;
16304;SDS011;8261;47.678;-122.174;2022-10-29T03:24:45;6.40;;;5.33;;
16304;SDS011;8261;47.678;-122.174;2022-10-29T03:27:16;8.07;;;4.97;;
16304;SDS011;8261;47.678;-122.174;2022-10-29T03:29:47;4.63;;;4.20;;
16304;SDS011;8261;47.678;-122.174;2022-10-29T03:32:18;7.00;;;4.60;;
16304;SDS011;8261;47.678;-122.174;2022-10-29T03:34:52;6.77;;;4.60;;
16304;SDS011;8261;47.678;-122.174;2022-10-29T03:37:25;4.50;;;3.77;;
16304;SDS011;8261;47.678;-122.174;2022-10-29T03:39:57;6.50;;;4.07;;
16304;SDS011;8261;47.678;-122.174;2022-10-29T03:42:28;6.30;;;4.20;;
16304;SDS011;8261;47.678;-122.174;2022-10-29T03:45:00;5.13;;;4.10;;
16304;SDS011;8261;47.678;-122.174;2022-10-29T03:47:31;4.57;;;3.63;;
16304;SDS011;8261;47.678;-122.174;2022-10-29T03:50:05;8.67;;;3.93;;
16304;SDS011;8261;47.678;-122.174;2022-10-29T03:52:40;6.20;;;4.07;;
16304;SDS011;8261;47.678;-122.174;2022-10-29T03:55:12;6.87;;;4.03;;
16304;SDS011;8261;47.678;-122.174;2022-10-29T03:57:43;6.77;;;4.07;;
16304;SDS011;8261;47.678;-122.174;2022-10-29T04:00:15;7.20;;;4.97;;
16304;SDS011;8261;47.678;-122.174;2022-10-29T04:02:48;6.53;;;5.10;;
16304;SDS011;8261;47.678;-122.174;2022-10-29T04:05:22;7.23;;;5.30;;
16304;SDS011;8261;47.678;-122.174;2022-10-29T04:07:53;6.53;;;4.40;;
16304;SDS011;8261;47.678;-122.174;2022-10-29T04:10:24;7.37;;;5.40;;
16304;SDS011;8261;47.678;-122.174;2022-10-29T04:12:55;6.97;;;5.77;;
16304;SDS011;8261;47.678;-122.174;2022-10-29T04:15:26;7.87;;;5.90;;
16304;SDS011;8261;47.678;-122.174;2022-10-29T04:17:56;7.07;;;5.70;;
16304;SDS011;8261;47.678;-122.174;2022-10-29T04:20:29;6.67;;;5.50;;
16304;SDS011;8261;47.678;-122.174;2022-10-29T04:23:20;7.03;;;5.70;;
16304;SDS011;8261;47.678;-122.174;2022-10-29T04:26:11;5.93;;;5.33;;
16304;SDS011;8261;47.678;-122.174;2022-10-29T04:29:02;8.70;;;5.30;;
16304;SDS011;8261;47.678;-122.174;2022-10-29T04:31:35;8.40;;;5.70;;
16304;SDS011;8261;47.678;-122.174;2022-10-29T04:34:07;5.67;;;5.03;;
16304;SDS011;8261;47.678;-122.174;2022-10-29T04:36:41;8.33;;;5.87;;
16304;SDS011;8261;47.678;-122.174;2022-10-29T04:39:13;6.90;;;5.33;;
16304;SDS011;8261;47.678;-122.174;2022-10-29T04:41:49;6.27;;;5.23;;
16304;SDS011;8261;47.678;-122.174;2022-10-29T04:44:20;7.70;;;5.07;;
16304;SDS011;8261;47.678;-122.174;2022-10-29T04:46:51;6.37;;;5.23;;
16304;SDS011;8261;47.678;-122.174;2022-10-29T04:49:22;6.60;;;5.07;;
16304;SDS011;8261;47.678;-122.174;2022-10-29T04:51:55;6.57;;;5.07;;
16304;SDS011;8261;47.678;-122.174;2022-10-29T04:54:26;7.27;;;4.73;;
16304;SDS011;8261;47.678;-122.174;2022-10-29T04:56:58;5.77;;;5.17;;
16304;SDS011;8261;47.678;-122.174;2022-10-29T04:59:30;6.50;;;5.30;;
16304;SDS011;8261;47.678;-122.174;2022-10-29T05:02:02;6.87;;;5.03;;
16304;SDS011;8261;47.678;-122.174;2022-10-29T05:04:33;7.87;;;4.80;;
16304;SDS011;8261;47.678;-122.174;2022-10-29T05:07:06;5.93;;;5.03;;
16304;SDS011;8261;47.678;-122.174;2022-10-29T05:09:38;5.60;;;4.90;;
16304;SDS011;8261;47.678;-122.174;2022-10-29T05:12:09;5.57;;;4.90;;
16304;SDS011;8261;47.678;-122.174;2022-10-29T05:14:40;5.50;;;4.90;;
16304;SDS011;8261;47.678;-122.174;2022-10-29T05:17:12;5.37;;;4.40;;
16304;SDS011;8261;47.678;-122.174;2022-10-29T05:19:43;6.77;;;4.63;;
16304;SDS011;8261;47.678;-122.174;2022-10-29T05:22:19;6.90;;;5.47;;
16304;SDS011;8261;47.678;-122.174;2022-10-29T05:24:50;5.13;;;4.67;;
16304;SDS011;8261;47.678;-122.174;2022-10-29T05:27:22;6.80;;;4.57;;
16304;SDS011;8261;47.678;-122.174;2022-10-29T05:29:54;7.77;;;4.80;;
16304;SDS011;8261;47.678;-122.174;2022-10-29T05:32:27;6.60;;;4.97;;
16304;SDS011;8261;47.678;-122.174;2022-10-29T05:34:59;6.93;;;5.53;;
16304;SDS011;8261;47.678;-122.174;2022-10-29T05:37:32;6.27;;;5.13;;
16304;SDS011;8261;47.678;-122.174;2022-10-29T05:40:06;7.17;;;5.10;;
16304;SDS011;8261;47.678;-122.174;2022-10-29T05:42:39;5.63;;;5.03;;
16304;SDS011;8261;47.678;-122.174;2022-10-29T05:45:13;7.03;;;5.13;;
16304;SDS011;8261;47.678;-122.174;2022-10-29T05:47:44;10.13;;;5.30;;
16304;SDS011;8261;47.678;-122.174;2022-10-29T05:50:15;7.33;;;5.03;;
16304;SDS011;8261;47.678;-122.174;2022-10-29T05:52:55;8.17;;;4.47;;
16304;SDS011;8261;47.678;-122.174;2022-10-29T05:55:27;7.83;;;4.60;;
16304;SDS011;8261;47.678;-122.174;2022-10-29T05:57:58;5.77;;;4.33;;
16304;SDS011;8261;47.678;-122.174;2022-10-29T06:00:31;5.07;;;4.03;;
16304;SDS011;8261;47.678;-122.174;2022-10-29T06:03:07;6.20;;;4.37;;
16304;SDS011;8261;47.678;-122.174;2022-10-29T06:05:41;4.90;;;3.80;;
16304;SDS011;8261;47.678;-122.174;2022-10-29T06:08:14;5.47;;;4.30;;
16304;SDS011;8261;47.678;-122.174;2022-10-29T06:10:46;5.57;;;3.80;;
16304;SDS011;8261;47.678;-122.174;2022-10-29T06:13:17;4.67;;;3.97;;
16304;SDS011;8261;47.678;-122.174;2022-10-29T06:15:49;6.17;;;4.07;;
16304;SDS011;8261;47.678;-122.174;2022-10-29T06:18:24;5.67;;;3.73;;
16304;SDS011;8261;47.678;-122.174;2022-10-29T06:20:56;4.47;;;3.90;;
16304;SDS011;8261;47.678;-122.174;2022-10-29T06:23:30;5.57;;;4.23;;
16304;SDS011;8261;47.678;-122.174;2022-10-29T06:26:04;4.63;;;3.87;;
16304;SDS011;8261;47.678;-122.174;2022-10-29T06:28:35;4.83;;;3.90;;
16304;SDS011;8261;47.678;-122.174;2022-10-29T06:31:06;5.73;;;3.80;;
16304;SDS011;8261;47.678;-122.174;2022-10-29T06:33:38;4.20;;;3.77;;
16304;SDS011;8261;47.678;-122.174;2022-10-29T06:36:09;5.60;;;4.13;;
16304;SDS011;8261;47.678;-122.174;2022-10-29T06:38:42;7.03;;;3.43;;
16304;SDS011;8261;47.678;-122.174;2022-10-29T06:41:13;5.77;;;3.40;;
16304;SDS011;8261;47.678;-122.174;2022-10-29T06:43:43;4.07;;;3.57;;
16304;SDS011;8261;47.678;-122.174;2022-10-29T06:46:14;6.30;;;3.40;;
16304;SDS011;8261;47.678;-122.174;2022-10-29T06:48:46;4.77;;;3.13;;
16304;SDS011;8261;47.678;-122.174;2022-10-29T06:51:18;4.80;;;3.97;;
16304;SDS011;8261;47.678;-122.174;2022-10-29T06:53:54;3.83;;;3.30;;
16304;SDS011;8261;47.678;-122.174;2022-10-29T06:56:25;5.33;;;3.40;;
16304;SDS011;8261;47.678;-122.174;2022-10-29T06:58:57;5.27;;;3.53;;
16304;SDS011;8261;47.678;-122.174;2022-10-29T07:01:28;4.30;;;3.30;;
16304;SDS011;8261;47.678;-122.174;2022-10-29T07:04:00;4.60;;;3.37;;
16304;SDS011;8261;47.678;-122.174;2022-10-29T07:06:31;4.87;;;3.07;;
16304;SDS011;8261;47.678;-122.174;2022-10-29T07:09:05;4.40;;;3.67;;
16304;SDS011;8261;47.678;-122.174;2022-10-29T07:11:36;4.53;;;3.27;;
16304;SDS011;8261;47.678;-122.174;2022-10-29T07:14:07;5.30;;;4.50;;
16304;SDS011;8261;47.678;-122.174;2022-10-29T07:16:39;5.07;;;3.67;;
16304;SDS011;8261;47.678;-122.174;2022-10-29T07:19:10;4.13;;;3.73;;
16304;SDS011;8261;47.678;-122.174;2022-10-29T07:21:42;4.50;;;3.40;;
16304;SDS011;8261;47.678;-122.174;2022-10-29T07:24:15;6.90;;;3.80;;
16304;SDS011;8261;47.678;-122.174;2022-10-29T07:26:46;4.30;;;3.40;;
16304;SDS011;8261;47.678;-122.174;2022-10-29T07:29:17;6.30;;;4.30;;
16304;SDS011;8261;47.678;-122.174;2022-10-29T07:31:48;3.90;;;3.50;;
16304;SDS011;8261;47.678;-122.174;2022-10-29T07:34:19;7.07;;;3.37;;
16304;SDS011;8261;47.678;-122.174;2022-10-29T07:36:50;5.03;;;3.83;;
16304;SDS011;8261;47.678;-122.174;2022-10-29T07:39:23;4.90;;;3.80;;
16304;SDS011;8261;47.678;-122.174;2022-10-29T07:41:54;5.23;;;3.37;;
16304;SDS011;8261;47.678;-122.174;2022-10-29T07:44:25;5.60;;;4.07;;
16304;SDS011;8261;47.678;-122.174;2022-10-29T07:46:56;4.20;;;3.47;;
16304;SDS011;8261;47.678;-122.174;2022-10-29T07:49:28;6.73;;;3.97;;
16304;SDS011;8261;47.678;-122.174;2022-10-29T07:52:00;5.20;;;4.20;;
16304;SDS011;8261;47.678;-122.174;2022-10-29T07:54:33;5.30;;;3.70;;
16304;SDS011;8261;47.678;-122.174;2022-10-29T07:57:04;5.40;;;4.13;;
16304;SDS011;8261;47.678;-122.174;2022-10-29T07:59:36;5.70;;;4.30;;
16304;SDS011;8261;47.678;-122.174;2022-10-29T08:02:07;5.97;;;4.27;;
16304;SDS011;8261;47.678;-122.174;2022-10-29T08:04:40;5.90;;;4.27;;
16304;SDS011;8261;47.678;-122.174;2022-10-29T08:07:13;7.53;;;4.07;;
16304;SDS011;8261;47.678;-122.174;2022-10-29T08:09:46;4.60;;;3.93;;
16304;SDS011;8261;47.678;-122.174;2022-10-29T08:12:17;4.27;;;3.87;;
16304;SDS011;8261;47.678;-122.174;2022-10-29T08:14:48;5.93;;;3.80;;
16304;SDS011;8261;47.678;-122.174;2022-10-29T08:17:19;4.57;;;3.43;;
16304;SDS011;8261;47.678;-122.174;2022-10-29T08:19:49;3.80;;;3.40;;
16304;SDS011;8261;47.678;-122.174;2022-10-29T08:22:20;4.57;;;3.33;;
16304;SDS011;8261;47.678;-122.174;2022-10-29T08:24:53;5.07;;;3.37;;
16304;SDS011;8261;47.678;-122.174;2022-10-29T08:27:24;4.80;;;3.17;;
16304;SDS011;8261;47.678;-122.174;2022-10-29T08:29:55;3.47;;;2.87;;
16304;SDS011;8261;47.678;-122.174;2022-10-29T08:32:25;5.50;;;3.30;;
16304;SDS011;8261;47.678;-122.174;2022-10-29T08:34:56;5.63;;;3.73;;
16304;SDS011;8261;47.678;-122.174;2022-10-29T08:37:28;5.07;;;3.80;;
16304;SDS011;8261;47.678;-122.174;2022-10-29T08:40:01;5.30;;;4.37;;
16304;SDS011;8261;47.678;-122.174;2022-10-29T08:42:35;5.43;;;4.30;;
16304;SDS011;8261;47.678;-122.174;2022-10-29T08:45:20;5.00;;;3.87;;
16304;SDS011;8261;47.678;-122.174;2022-10-29T08:48:10;5.30;;;4.33;;
16304;SDS011;8261;47.678;-122.174;2022-10-29T08:50:52;5.70;;;3.80;;
16304;SDS011;8261;47.678;-122.174;2022-10-29T08:53:32;4.17;;;3.73;;
16304;SDS011;8261;47.678;-122.174;2022-10-29T08:56:11;4.00;;;3.47;;
16304;SDS011;8261;47.678;-122.174;2022-10-29T08:58:49;6.20;;;3.53;;
16304;SDS011;8261;47.678;-122.174;2022-10-29T09:01:26;4.27;;;3.67;;
16304;SDS011;8261;47.678;-122.174;2022-10-29T09:03:58;3.77;;;3.40;;
16304;SDS011;8261;47.678;-122.174;2022-10-29T09:06:35;4.97;;;3.67;;
16304;SDS011;8261;47.678;-122.174;2022-10-29T09:09:20;8.27;;;3.60;;
16304;SDS011;8261;47.678;-122.174;2022-10-29T09:18:06;3.27;;;2.97;;
16304;SDS011;8261;47.678;-122.174;2022-10-29T09:20:49;5.60;;;3.40;;
16304;SDS011;8261;47.678;-122.174;2022-10-29T09:23:29;3.70;;;3.40;;
16304;SDS011;8261;47.678;-122.174;2022-10-29T09:26:14;4.40;;;3.60;;
16304;SDS011;8261;47.678;-122.174;2022-10-29T09:28:54;5.47;;;3.67;;
16304;SDS011;8261;47.678;-122.174;2022-10-29T09:31:50;4.00;;;3.60;;
16304;SDS011;8261;47.678;-122.174;2022-10-29T09:34:24;4.57;;;4.00;;
16304;SDS011;8261;47.678;-122.174;2022-10-29T09:37:00;6.90;;;4.33;;
16304;SDS011;8261;47.678;-122.174;2022-10-29T09:39:39;4.10;;;3.70;;
16304;SDS011;8261;47.678;-122.174;2022-10-29T09:42:11;5.00;;;3.80;;
16304;SDS011;8261;47.678;-122.174;2022-10-29T09:44:48;3.93;;;3.30;;
16304;SDS011;8261;47.678;-122.174;2022-10-29T09:47:26;4.93;;;4.00;;
16304;SDS011;8261;47.678;-122.174;2022-10-29T09:50:10;6.37;;;3.83;;
16304;SDS011;8261;47.678;-122.174;2022-10-29T09:52:45;4.70;;;3.80;;
16304;SDS011;8261;47.678;-122.174;2022-10-29T09:55:20;5.70;;;4.10;;
16304;SDS011;8261;47.678;-122.174;2022-10-29T09:57:53;4.03;;;3.63;;
16304;SDS011;8261;47.678;-122.174;2022-10-29T10:00:27;6.83;;;4.10;;
16304;SDS011;8261;47.678;-122.174;2022-10-29T10:03:03;5.20;;;4.00;;
16304;SDS011;8261;47.678;-122.174;2022-10-29T10:05:55;5.47;;;4.67;;
16304;SDS011;8261;47.678;-122.174;2022-10-29T10:08:29;5.30;;;4.80;;
16304;SDS011;8261;47.678;-122.174;2022-10-29T10:11:01;5.90;;;4.80;;
16304;SDS011;8261;47.678;-122.174;2022-10-29T10:13:34;6.30;;;4.87;;
16304;SDS011;8261;47.678;-122.174;2022-10-29T10:16:21;5.57;;;5.07;;
16304;SDS011;8261;47.678;-122.174;2022-10-29T10:18:55;5.20;;;4.70;;
16304;SDS011;8261;47.678;-122.174;2022-10-29T10:21:27;7.60;;;5.30;;
16304;SDS011;8261;47.678;-122.174;2022-10-29T10:23:59;5.83;;;5.00;;
16304;SDS011;8261;47.678;-122.174;2022-10-29T10:26:31;5.07;;;4.57;;
16304;SDS011;8261;47.678;-122.174;2022-10-29T10:29:09;5.70;;;5.17;;
16304;SDS011;8261;47.678;-122.174;2022-10-29T10:31:43;5.30;;;4.53;;
16304;SDS011;8261;47.678;-122.174;2022-10-29T10:34:17;5.83;;;5.10;;
16304;SDS011;8261;47.678;-122.174;2022-10-29T10:36:50;6.43;;;5.13;;
16304;SDS011;8261;47.678;-122.174;2022-10-29T10:39:27;6.77;;;4.90;;
16304;SDS011;8261;47.678;-122.174;2022-10-29T10:42:00;6.73;;;4.77;;
16304;SDS011;8261;47.678;-122.174;2022-10-29T10:44:34;5.20;;;4.00;;
16304;SDS011;8261;47.678;-122.174;2022-10-29T10:47:05;4.47;;;4.03;;
16304;SDS011;8261;47.678;-122.174;2022-10-29T10:49:41;6.50;;;4.07;;
16304;SDS011;8261;47.678;-122.174;2022-10-29T10:52:15;8.23;;;4.47;;
16304;SDS011;8261;47.678;-122.174;2022-10-29T10:54:53;5.70;;;4.57;;
16304;SDS011;8261;47.678;-122.174;2022-10-29T10:57:31;5.27;;;4.77;;
16304;SDS011;8261;47.678;-122.174;2022-10-29T11:00:12;7.47;;;4.50;;
16304;SDS011;8261;47.678;-122.174;2022-10-29T11:02:49;4.90;;;4.30;;
16304;SDS011;8261;47.678;-122.174;2022-10-29T11:05:27;7.40;;;4.20;;
16304;SDS011;8261;47.678;-122.174;2022-10-29T11:08:03;6.70;;;4.10;;
16304;SDS011;8261;47.678;-122.174;2022-10-29T11:10:41;4.43;;;3.90;;
16304;SDS011;8261;47.678;-122.174;2022-10-29T11:13:19;5.70;;;4.37;;
16304;SDS011;8261;47.678;-122.174;2022-10-29T11:15:53;4.83;;;4.07;;
16304;SDS011;8261;47.678;-122.174;2022-10-29T11:18:28;5.43;;;4.47;;
16304;SDS011;8261;47.678;-122.174;2022-10-29T11:21:09;5.07;;;4.47;;
16304;SDS011;8261;47.678;-122.174;2022-10-29T11:23:47;5.53;;;4.57;;
16304;SDS011;8261;47.678;-122.174;2022-10-29T11:26:27;6.30;;;5.30;;
16304;SDS011;8261;47.678;-122.174;2022-10-29T11:29:04;6.00;;;5.37;;
16304;SDS011;8261;47.678;-122.174;2022-10-29T11:31:44;6.23;;;4.47;;
16304;SDS011;8261;47.678;-122.174;2022-10-29T11:34:23;7.63;;;5.00;;
16304;SDS011;8261;47.678;-122.174;2022-10-29T11:37:02;6.57;;;5.90;;
16304;SDS011;8261;47.678;-122.174;2022-10-29T11:39:54;8.60;;;6.37;;
16304;SDS011;8261;47.678;-122.174;2022-10-29T11:42:30;9.07;;;6.47;;
16304;SDS011;8261;47.678;-122.174;2022-10-29T11:45:03;8.47;;;6.73;;
16304;SDS011;8261;47.678;-122.174;2022-10-29T11:47:43;7.90;;;7.00;;
16304;SDS011;8261;47.678;-122.174;2022-10-29T11:50:28;10.57;;;6.80;;
16304;SDS011;8261;47.678;-122.174;2022-10-29T11:53:19;11.97;;;6.70;;
16304;SDS011;8261;47.678;-122.174;2022-10-29T11:56:01;9.73;;;7.20;;
16304;SDS011;8261;47.678;-122.174;2022-10-29T11:58:41;9.00;;;6.90;;
16304;SDS011;8261;47.678;-122.174;2022-10-29T12:01:18;8.47;;;6.70;;
16304;SDS011;8261;47.678;-122.174;2022-10-29T12:04:07;10.90;;;6.80;;
16304;SDS011;8261;47.678;-122.174;2022-10-29T12:06:53;6.43;;;5.60;;
16304;SDS011;8261;47.678;-122.174;2022-10-29T12:09:49;7.30;;;5.70;;
16304;SDS011;8261;47.678;-122.174;2022-10-29T12:12:45;5.63;;;5.03;;
16304;SDS011;8261;47.678;-122.174;2022-10-29T12:15:25;6.80;;;5.30;;
16304;SDS011;8261;47.678;-122.174;2022-10-29T12:18:03;6.97;;;5.90;;
16304;SDS011;8261;47.678;-122.174;2022-10-29T12:20:44;7.67;;;5.40;;
16304;SDS011;8261;47.678;-122.174;2022-10-29T12:23:23;6.50;;;5.80;;
16304;SDS011;8261;47.678;-122.174;2022-10-29T12:26:07;6.23;;;5.47;;
16304;SDS011;8261;47.678;-122.174;2022-10-29T12:28:48;6.17;;;5.37;;
16304;SDS011;8261;47.678;-122.174;2022-10-29T12:31:26;6.57;;;5.70;;
16304;SDS011;8261;47.678;-122.174;2022-10-29T12:34:07;7.93;;;5.93;;
16304;SDS011;8261;47.678;-122.174;2022-10-29T12:36:44;6.67;;;5.63;;
16304;SDS011;8261;47.678;-122.174;2022-10-29T12:39:25;6.10;;;5.50;;
16304;SDS011;8261;47.678;-122.174;2022-10-29T12:42:01;7.67;;;5.93;;
16304;SDS011;8261;47.678;-122.174;2022-10-29T12:44:38;7.33;;;5.97;;
16304;SDS011;8261;47.678;-122.174;2022-10-29T12:47:15;7.60;;;5.20;;
16304;SDS011;8261;47.678;-122.174;2022-10-29T12:49:51;7.80;;;5.43;;
16304;SDS011;8261;47.678;-122.174;2022-10-29T12:52:33;5.93;;;5.33;;
16304;SDS011;8261;47.678;-122.174;2022-10-29T12:55:08;5.93;;;5.33;;
16304;SDS011;8261;47.678;-122.174;2022-10-29T12:57:45;7.80;;;5.90;;
16304;SDS011;8261;47.678;-122.174;2022-10-29T13:06:51;9.43;;;5.10;;
16304;SDS011;8261;47.678;-122.174;2022-10-29T13:09:27;7.77;;;5.50;;
16304;SDS011;8261;47.678;-122.174;2022-10-29T13:12:02;8.30;;;5.57;;
16304;SDS011;8261;47.678;-122.174;2022-10-29T13:14:39;6.37;;;5.57;;
16304;SDS011;8261;47.678;-122.174;2022-10-29T13:17:25;6.33;;;5.30;;
16304;SDS011;8261;47.678;-122.174;2022-10-29T13:19:59;6.60;;;5.50;;
16304;SDS011;8261;47.678;-122.174;2022-10-29T13:25:27;6.40;;;5.47;;
16304;SDS011;8261;47.678;-122.174;2022-10-29T13:37:38;6.67;;;5.40;;
16304;SDS011;8261;47.678;-122.174;2022-10-29T13:40:54;6.13;;;5.53;;
16304;SDS011;8261;47.678;-122.174;2022-10-29T13:43:52;6.63;;;5.17;;
16304;SDS011;8261;47.678;-122.174;2022-10-29T13:46:30;5.93;;;5.00;;
16304;SDS011;8261;47.678;-122.174;2022-10-29T13:49:14;6.00;;;5.40;;
16304;SDS011;8261;47.678;-122.174;2022-10-29T13:51:49;5.47;;;4.97;;
16304;SDS011;8261;47.678;-122.174;2022-10-29T13:54:26;5.97;;;5.37;;
16304;SDS011;8261;47.678;-122.174;2022-10-29T13:57:13;6.13;;;5.37;;
16304;SDS011;8261;47.678;-122.174;2022-10-29T13:59:49;6.77;;;5.37;;
16304;SDS011;8261;47.678;-122.174;2022-10-29T14:02:27;6.50;;;5.13;;
16304;SDS011;8261;47.678;-122.174;2022-10-29T14:05:08;6.30;;;5.23;;
16304;SDS011;8261;47.678;-122.174;2022-10-29T14:07:46;5.73;;;5.13;;
16304;SDS011;8261;47.678;-122.174;2022-10-29T14:10:24;5.40;;;4.90;;
16304;SDS011;8261;47.678;-122.174;2022-10-29T14:13:00;6.03;;;5.47;;
16304;SDS011;8261;47.678;-122.174;2022-10-29T14:15:41;7.47;;;5.43;;
16304;SDS011;8261;47.678;-122.174;2022-10-29T14:18:30;6.43;;;5.83;;
16304;SDS011;8261;47.678;-122.174;2022-10-29T14:21:04;6.60;;;5.70;;
16304;SDS011;8261;47.678;-122.174;2022-10-29T14:23:50;6.07;;;5.47;;
16304;SDS011;8261;47.678;-122.174;2022-10-29T14:26:26;6.67;;;5.43;;
16304;SDS011;8261;47.678;-122.174;2022-10-29T14:29:11;7.07;;;6.10;;
16304;SDS011;8261;47.678;-122.174;2022-10-29T14:31:43;8.03;;;6.33;;
16304;SDS011;8261;47.678;-122.174;2022-10-29T14:34:24;8.20;;;6.30;;
16304;SDS011;8261;47.678;-122.174;2022-10-29T14:36:59;7.93;;;6.57;;
16304;SDS011;8261;47.678;-122.174;2022-10-29T14:39:33;6.87;;;6.07;;
16304;SDS011;8261;47.678;-122.174;2022-10-29T14:42:26;7.33;;;6.63;;
16304;SDS011;8261;47.678;-122.174;2022-10-29T14:45:01;9.17;;;8.07;;
16304;SDS011;8261;47.678;-122.174;2022-10-29T14:47:34;10.87;;;9.27;;
16304;SDS011;8261;47.678;-122.174;2022-10-29T14:50:12;11.00;;;9.00;;
16304;SDS011;8261;47.678;-122.174;2022-10-29T14:52:48;10.40;;;9.20;;
16304;SDS011;8261;47.678;-122.174;2022-10-29T14:55:23;12.50;;;9.13;;
16304;SDS011;8261;47.678;-122.174;2022-10-29T14:57:59;10.80;;;8.90;;
16304;SDS011;8261;47.678;-122.174;2022-10-29T15:00:35;10.33;;;8.67;;
16304;SDS011;8261;47.678;-122.174;2022-10-29T15:03:13;9.53;;;8.63;;
16304;SDS011;8261;47.678;-122.174;2022-10-29T15:05:50;9.40;;;8.40;;
16304;SDS011;8261;47.678;-122.174;2022-10-29T15:08:39;9.40;;;8.40;;
16304;SDS011;8261;47.678;-122.174;2022-10-29T15:11:34;8.97;;;8.07;;
16304;SDS011;8261;47.678;-122.174;2022-10-29T15:14:23;9.63;;;8.20;;
16304;SDS011;8261;47.678;-122.174;2022-10-29T15:16:57;8.57;;;7.67;;
16304;SDS011;8261;47.678;-122.174;2022-10-29T15:19:29;9.07;;;7.57;;
16304;SDS011;8261;47.678;-122.174;2022-10-29T15:22:06;9.53;;;7.83;;
16304;SDS011;8261;47.678;-122.174;2022-10-29T15:24:42;9.57;;;8.57;;
16304;SDS011;8261;47.678;-122.174;2022-10-29T15:27:16;9.33;;;8.03;;
16304;SDS011;8261;47.678;-122.174;2022-10-29T15:29:48;9.33;;;8.00;;
16304;SDS011;8261;47.678;-122.174;2022-10-29T15:32:20;9.77;;;8.43;;
16304;SDS011;8261;47.678;-122.174;2022-10-29T15:34:57;9.30;;;8.40;;